sensor_id;sensor_type;location;lat;lon;timestamp;temperature;humidity
77969;DHT22;67161;0.000;0.000;2023-03-01T00:01:27;14.40;47.60
77969;DHT22;67161;0.000;0.000;2023-03-01T00:03:54;14.40;47.70
77969;DHT22;67161;0.000;0.000;2023-03-01T00:06:20;14.40;47.70
77969;DHT22;67161;0.000;0.000;2023-03-01T00:08:47;14.40;47.60
77969;DHT22;67161;0.000;0.000;2023-03-01T00:11:17;14.40;47.60
77969;DHT22;67161;0.000;0.000;2023-03-01T00:13:44;14.30;47.50
77969;DHT22;67161;0.000;0.000;2023-03-01T00:16:16;14.30;47.50
77969;DHT22;67161;0.000;0.000;2023-03-01T00:18:42;14.30;47.50
77969;DHT22;67161;0.000;0.000;2023-03-01T00:21:08;14.30;47.60
77969;DHT22;67161;0.000;0.000;2023-03-01T00:23:34;14.30;47.50
77969;DHT22;67161;0.000;0.000;2023-03-01T00:26:00;14.30;47.50
77969;DHT22;67161;0.000;0.000;2023-03-01T00:28:26;14.30;47.50
77969;DHT22;67161;0.000;0.000;2023-03-01T00:30:52;14.30;47.50
77969;DHT22;67161;0.000;0.000;2023-03-01T00:33:17;14.30;47.50
77969;DHT22;67161;0.000;0.000;2023-03-01T00:35:43;14.20;47.40
77969;DHT22;67161;0.000;0.000;2023-03-01T00:38:09;14.20;47.50
77969;DHT22;67161;0.000;0.000;2023-03-01T00:40:36;14.20;47.50
77969;DHT22;67161;0.000;0.000;2023-03-01T00:43:02;14.20;47.50
77969;DHT22;67161;0.000;0.000;2023-03-01T00:45:28;14.20;47.40
77969;DHT22;67161;0.000;0.000;2023-03-01T00:47:54;14.20;47.40
77969;DHT22;67161;0.000;0.000;2023-03-01T00:50:20;14.20;47.50
77969;DHT22;67161;0.000;0.000;2023-03-01T00:52:46;14.20;48.40
77969;DHT22;67161;0.000;0.000;2023-03-01T00:55:12;14.20;47.40
77969;DHT22;67161;0.000;0.000;2023-03-01T00:57:38;14.20;47.50
77969;DHT22;67161;0.000;0.000;2023-03-01T01:00:05;14.20;47.40
77969;DHT22;67161;0.000;0.000;2023-03-01T01:02:35;14.20;47.40
77969;DHT22;67161;0.000;0.000;2023-03-01T01:05:00;14.20;47.50
77969;DHT22;67161;0.000;0.000;2023-03-01T01:07:26;14.10;47.30
77969;DHT22;67161;0.000;0.000;2023-03-01T01:09:52;14.10;47.40
77969;DHT22;67161;0.000;0.000;2023-03-01T01:12:17;14.10;47.40
77969;DHT22;67161;0.000;0.000;2023-03-01T01:14:43;14.10;47.40
77969;DHT22;67161;0.000;0.000;2023-03-01T01:17:08;14.10;47.40
77969;DHT22;67161;0.000;0.000;2023-03-01T01:19:34;14.10;47.40
77969;DHT22;67161;0.000;0.000;2023-03-01T01:22:00;14.10;47.40
77969;DHT22;67161;0.000;0.000;2023-03-01T01:24:25;14.10;47.40
77969;DHT22;67161;0.000;0.000;2023-03-01T01:26:51;14.10;47.30
77969;DHT22;67161;0.000;0.000;2023-03-01T01:29:17;14.10;47.40
77969;DHT22;67161;0.000;0.000;2023-03-01T01:31:43;14.00;47.30
77969;DHT22;67161;0.000;0.000;2023-03-01T01:34:13;14.00;47.40
77969;DHT22;67161;0.000;0.000;2023-03-01T01:36:39;14.00;47.30
77969;DHT22;67161;0.000;0.000;2023-03-01T01:39:05;14.10;47.30
77969;DHT22;67161;0.000;0.000;2023-03-01T01:41:31;14.10;47.40
77969;DHT22;67161;0.000;0.000;2023-03-01T01:44:21;14.00;47.30
77969;DHT22;67161;0.000;0.000;2023-03-01T01:46:55;14.00;47.30
77969;DHT22;67161;0.000;0.000;2023-03-01T01:49:38;14.00;47.30
77969;DHT22;67161;0.000;0.000;2023-03-01T01:55:03;14.00;47.30
77969;DHT22;67161;0.000;0.000;2023-03-01T01:57:43;14.00;47.30
77969;DHT22;67161;0.000;0.000;2023-03-01T02:00:22;14.00;47.30
77969;DHT22;67161;0.000;0.000;2023-03-01T02:02:51;13.90;47.20
77969;DHT22;67161;0.000;0.000;2023-03-01T02:05:26;13.90;47.20
77969;DHT22;67161;0.000;0.000;2023-03-01T02:07:55;13.90;47.30
77969;DHT22;67161;0.000;0.000;2023-03-01T02:10:22;13.90;47.30
77969;DHT22;67161;0.000;0.000;2023-03-01T02:12:49;13.90;47.30
77969;DHT22;67161;0.000;0.000;2023-03-01T02:15:15;13.90;47.30
77969;DHT22;67161;0.000;0.000;2023-03-01T02:17:41;13.90;47.30
77969;DHT22;67161;0.000;0.000;2023-03-01T02:22:54;13.90;47.30
77969;DHT22;67161;0.000;0.000;2023-03-01T02:30:39;13.80;47.20
77969;DHT22;67161;0.000;0.000;2023-03-01T02:33:26;13.80;47.20
77969;DHT22;67161;0.000;0.000;2023-03-01T02:35:53;13.80;47.20
77969;DHT22;67161;0.000;0.000;2023-03-01T02:38:19;13.80;47.30
77969;DHT22;67161;0.000;0.000;2023-03-01T02:40:46;13.80;48.20
77969;DHT22;67161;0.000;0.000;2023-03-01T02:43:13;13.80;47.30
77969;DHT22;67161;0.000;0.000;2023-03-01T02:45:47;13.80;47.30
77969;DHT22;67161;0.000;0.000;2023-03-01T02:48:13;13.80;47.30
77969;DHT22;67161;0.000;0.000;2023-03-01T02:53:19;13.80;47.30
77969;DHT22;67161;0.000;0.000;2023-03-01T02:55:47;13.70;48.20
77969;DHT22;67161;0.000;0.000;2023-03-01T02:58:13;13.70;47.20
77969;DHT22;67161;0.000;0.000;2023-03-01T03:00:41;13.70;47.20
77969;DHT22;67161;0.000;0.000;2023-03-01T03:03:13;13.70;47.20
77969;DHT22;67161;0.000;0.000;2023-03-01T03:05:39;13.70;47.20
77969;DHT22;67161;0.000;0.000;2023-03-01T03:08:05;13.70;47.20
77969;DHT22;67161;0.000;0.000;2023-03-01T03:10:35;13.70;47.20
77969;DHT22;67161;0.000;0.000;2023-03-01T03:13:13;13.70;47.20
77969;DHT22;67161;0.000;0.000;2023-03-01T03:15:40;13.70;47.20
77969;DHT22;67161;0.000;0.000;2023-03-01T03:18:09;13.60;47.10
77969;DHT22;67161;0.000;0.000;2023-03-01T03:20:36;13.60;47.10
77969;DHT22;67161;0.000;0.000;2023-03-01T03:23:03;13.60;47.10
77969;DHT22;67161;0.000;0.000;2023-03-01T03:25:29;13.60;47.20
77969;DHT22;67161;0.000;0.000;2023-03-01T03:27:56;13.60;47.10
77969;DHT22;67161;0.000;0.000;2023-03-01T03:30:23;13.60;47.10
77969;DHT22;67161;0.000;0.000;2023-03-01T03:32:50;13.60;47.10
77969;DHT22;67161;0.000;0.000;2023-03-01T03:37:45;13.60;47.10
77969;DHT22;67161;0.000;0.000;2023-03-01T03:40:50;13.60;47.10
77969;DHT22;67161;0.000;0.000;2023-03-01T03:43:21;13.60;47.00
77969;DHT22;67161;0.000;0.000;2023-03-01T03:45:50;13.50;47.00
77969;DHT22;67161;0.000;0.000;2023-03-01T03:48:17;13.50;47.00
77969;DHT22;67161;0.000;0.000;2023-03-01T03:50:48;13.50;46.90
77969;DHT22;67161;0.000;0.000;2023-03-01T03:53:14;13.60;47.00
77969;DHT22;67161;0.000;0.000;2023-03-01T03:55:39;13.50;47.00
77969;DHT22;67161;0.000;0.000;2023-03-01T03:58:07;13.50;46.90
77969;DHT22;67161;0.000;0.000;2023-03-01T04:00:43;13.50;46.90
77969;DHT22;67161;0.000;0.000;2023-03-01T04:03:10;13.50;46.90
77969;DHT22;67161;0.000;0.000;2023-03-01T04:05:37;13.50;46.80
77969;DHT22;67161;0.000;0.000;2023-03-01T04:08:03;13.50;46.90
77969;DHT22;67161;0.000;0.000;2023-03-01T04:10:37;13.50;46.80
77969;DHT22;67161;0.000;0.000;2023-03-01T04:13:04;13.50;46.90
77969;DHT22;67161;0.000;0.000;2023-03-01T04:15:30;13.40;46.80
77969;DHT22;67161;0.000;0.000;2023-03-01T04:17:56;13.40;46.80
77969;DHT22;67161;0.000;0.000;2023-03-01T04:20:24;13.40;46.80
77969;DHT22;67161;0.000;0.000;2023-03-01T04:25:42;13.40;46.70
77969;DHT22;67161;0.000;0.000;2023-03-01T04:28:10;13.40;46.80
77969;DHT22;67161;0.000;0.000;2023-03-01T04:30:37;13.40;46.80
77969;DHT22;67161;0.000;0.000;2023-03-01T04:33:05;13.40;46.70
77969;DHT22;67161;0.000;0.000;2023-03-01T04:35:31;13.40;46.80
77969;DHT22;67161;0.000;0.000;2023-03-01T04:37:57;13.40;46.80
77969;DHT22;67161;0.000;0.000;2023-03-01T04:40:23;13.40;46.80
77969;DHT22;67161;0.000;0.000;2023-03-01T04:42:48;13.40;46.80
77969;DHT22;67161;0.000;0.000;2023-03-01T04:45:14;13.40;46.70
77969;DHT22;67161;0.000;0.000;2023-03-01T04:47:41;13.30;46.80
77969;DHT22;67161;0.000;0.000;2023-03-01T04:50:08;13.40;46.80
77969;DHT22;67161;0.000;0.000;2023-03-01T04:52:34;13.30;46.70
77969;DHT22;67161;0.000;0.000;2023-03-01T04:55:01;13.30;46.70
77969;DHT22;67161;0.000;0.000;2023-03-01T04:57:26;13.30;47.60
77969;DHT22;67161;0.000;0.000;2023-03-01T04:59:52;13.30;46.70
77969;DHT22;67161;0.000;0.000;2023-03-01T05:02:18;13.30;46.70
77969;DHT22;67161;0.000;0.000;2023-03-01T05:04:43;13.30;46.70
77969;DHT22;67161;0.000;0.000;2023-03-01T05:07:09;13.30;46.70
77969;DHT22;67161;0.000;0.000;2023-03-01T05:09:35;13.30;46.70
77969;DHT22;67161;0.000;0.000;2023-03-01T05:12:00;13.20;46.60
77969;DHT22;67161;0.000;0.000;2023-03-01T05:14:26;13.20;46.60
77969;DHT22;67161;0.000;0.000;2023-03-01T05:16:52;13.20;46.70
77969;DHT22;67161;0.000;0.000;2023-03-01T05:19:17;13.20;46.60
77969;DHT22;67161;0.000;0.000;2023-03-01T05:21:48;13.20;46.60
77969;DHT22;67161;0.000;0.000;2023-03-01T05:24:30;13.20;46.60
77969;DHT22;67161;0.000;0.000;2023-03-01T05:26:56;13.20;46.60
77969;DHT22;67161;0.000;0.000;2023-03-01T05:29:23;13.20;46.70
77969;DHT22;67161;0.000;0.000;2023-03-01T05:31:54;13.10;46.50
77969;DHT22;67161;0.000;0.000;2023-03-01T05:34:24;13.20;46.60
77969;DHT22;67161;0.000;0.000;2023-03-01T05:36:51;13.20;46.50
77969;DHT22;67161;0.000;0.000;2023-03-01T05:39:19;13.10;46.50
77969;DHT22;67161;0.000;0.000;2023-03-01T05:41:46;13.10;46.50
77969;DHT22;67161;0.000;0.000;2023-03-01T05:44:12;13.10;46.50
77969;DHT22;67161;0.000;0.000;2023-03-01T05:46:37;13.10;46.50
77969;DHT22;67161;0.000;0.000;2023-03-01T05:49:03;13.10;46.50
77969;DHT22;67161;0.000;0.000;2023-03-01T05:51:29;13.10;46.40
77969;DHT22;67161;0.000;0.000;2023-03-01T05:53:55;13.10;46.50
77969;DHT22;67161;0.000;0.000;2023-03-01T05:56:20;13.10;46.50
77969;DHT22;67161;0.000;0.000;2023-03-01T05:58:48;13.10;46.50
77969;DHT22;67161;0.000;0.000;2023-03-01T06:01:14;13.00;46.40
77969;DHT22;67161;0.000;0.000;2023-03-01T06:03:40;13.00;46.40
77969;DHT22;67161;0.000;0.000;2023-03-01T06:06:06;13.00;46.40
77969;DHT22;67161;0.000;0.000;2023-03-01T06:08:32;13.00;46.30
77969;DHT22;67161;0.000;0.000;2023-03-01T06:10:57;13.00;46.40
77969;DHT22;67161;0.000;0.000;2023-03-01T06:13:23;13.00;46.40
77969;DHT22;67161;0.000;0.000;2023-03-01T06:15:49;13.00;46.40
77969;DHT22;67161;0.000;0.000;2023-03-01T06:18:15;13.00;46.30
77969;DHT22;67161;0.000;0.000;2023-03-01T06:20:41;13.00;46.30
77969;DHT22;67161;0.000;0.000;2023-03-01T06:23:06;13.00;46.30
77969;DHT22;67161;0.000;0.000;2023-03-01T06:25:32;12.90;46.20
77969;DHT22;67161;0.000;0.000;2023-03-01T06:27:58;13.00;46.30
77969;DHT22;67161;0.000;0.000;2023-03-01T06:30:24;12.90;46.20
77969;DHT22;67161;0.000;0.000;2023-03-01T06:32:51;12.90;46.30
77969;DHT22;67161;0.000;0.000;2023-03-01T06:35:18;13.00;46.30
77969;DHT22;67161;0.000;0.000;2023-03-01T06:37:45;12.90;46.30
77969;DHT22;67161;0.000;0.000;2023-03-01T06:40:12;12.90;46.30
77969;DHT22;67161;0.000;0.000;2023-03-01T06:42:42;12.90;46.30
77969;DHT22;67161;0.000;0.000;2023-03-01T06:45:08;12.90;46.30
77969;DHT22;67161;0.000;0.000;2023-03-01T06:47:34;12.90;46.30
77969;DHT22;67161;0.000;0.000;2023-03-01T06:50:01;12.90;46.20
77969;DHT22;67161;0.000;0.000;2023-03-01T06:52:27;12.90;46.20
77969;DHT22;67161;0.000;0.000;2023-03-01T06:54:53;12.90;46.20
77969;DHT22;67161;0.000;0.000;2023-03-01T06:57:18;12.90;46.10
77969;DHT22;67161;0.000;0.000;2023-03-01T06:59:44;12.90;46.10
77969;DHT22;67161;0.000;0.000;2023-03-01T07:02:11;12.90;46.00
77969;DHT22;67161;0.000;0.000;2023-03-01T07:04:37;12.90;46.00
77969;DHT22;67161;0.000;0.000;2023-03-01T07:07:03;12.90;46.00
77969;DHT22;67161;0.000;0.000;2023-03-01T07:09:29;12.90;46.00
77969;DHT22;67161;0.000;0.000;2023-03-01T07:11:54;12.90;45.90
77969;DHT22;67161;0.000;0.000;2023-03-01T07:14:21;12.90;46.00
77969;DHT22;67161;0.000;0.000;2023-03-01T07:16:47;12.90;45.80
77969;DHT22;67161;0.000;0.000;2023-03-01T07:19:13;12.90;45.80
77969;DHT22;67161;0.000;0.000;2023-03-01T07:21:38;12.90;45.70
77969;DHT22;67161;0.000;0.000;2023-03-01T07:24:07;13.00;45.80
77969;DHT22;67161;0.000;0.000;2023-03-01T07:26:33;13.00;45.80
77969;DHT22;67161;0.000;0.000;2023-03-01T07:28:59;13.00;45.70
77969;DHT22;67161;0.000;0.000;2023-03-01T07:31:25;13.00;45.70
77969;DHT22;67161;0.000;0.000;2023-03-01T07:33:53;13.00;45.70
77969;DHT22;67161;0.000;0.000;2023-03-01T07:36:19;13.00;45.70
77969;DHT22;67161;0.000;0.000;2023-03-01T07:38:45;13.00;45.70
77969;DHT22;67161;0.000;0.000;2023-03-01T07:41:10;13.00;45.70
77969;DHT22;67161;0.000;0.000;2023-03-01T07:43:36;13.00;45.70
77969;DHT22;67161;0.000;0.000;2023-03-01T07:46:03;13.10;45.70
77969;DHT22;67161;0.000;0.000;2023-03-01T07:48:29;13.10;45.60
77969;DHT22;67161;0.000;0.000;2023-03-01T07:51:00;13.10;45.60
77969;DHT22;67161;0.000;0.000;2023-03-01T07:53:26;13.10;45.60
77969;DHT22;67161;0.000;0.000;2023-03-01T07:56:01;13.10;45.60
77969;DHT22;67161;0.000;0.000;2023-03-01T07:58:27;13.10;45.50
77969;DHT22;67161;0.000;0.000;2023-03-01T08:00:52;13.10;45.60
77969;DHT22;67161;0.000;0.000;2023-03-01T08:03:18;13.10;45.60
77969;DHT22;67161;0.000;0.000;2023-03-01T08:05:44;13.10;45.60
77969;DHT22;67161;0.000;0.000;2023-03-01T08:08:09;13.10;45.50
77969;DHT22;67161;0.000;0.000;2023-03-01T08:10:36;13.20;45.50
77969;DHT22;67161;0.000;0.000;2023-03-01T08:13:01;13.20;45.40
77969;DHT22;67161;0.000;0.000;2023-03-01T08:15:27;13.20;45.30
77969;DHT22;67161;0.000;0.000;2023-03-01T08:17:52;13.30;45.30
77969;DHT22;67161;0.000;0.000;2023-03-01T08:20:18;13.30;45.30
77969;DHT22;67161;0.000;0.000;2023-03-01T08:22:44;13.30;45.20
77969;DHT22;67161;0.000;0.000;2023-03-01T08:25:09;13.40;45.20
77969;DHT22;67161;0.000;0.000;2023-03-01T08:27:35;13.40;45.20
77969;DHT22;67161;0.000;0.000;2023-03-01T08:30:01;13.50;45.20
77969;DHT22;67161;0.000;0.000;2023-03-01T08:32:26;13.50;46.00
77969;DHT22;67161;0.000;0.000;2023-03-01T08:34:52;13.50;45.10
77969;DHT22;67161;0.000;0.000;2023-03-01T08:37:18;13.50;45.00
77969;DHT22;67161;0.000;0.000;2023-03-01T08:39:43;13.60;45.10
77969;DHT22;67161;0.000;0.000;2023-03-01T08:42:09;13.60;45.50
77969;DHT22;67161;0.000;0.000;2023-03-01T08:44:34;13.70;45.50
77969;DHT22;67161;0.000;0.000;2023-03-01T08:47:00;13.80;45.50
77969;DHT22;67161;0.000;0.000;2023-03-01T08:49:27;13.80;45.50
77969;DHT22;67161;0.000;0.000;2023-03-01T08:51:53;13.90;45.40
77969;DHT22;67161;0.000;0.000;2023-03-01T08:54:20;13.90;45.30
77969;DHT22;67161;0.000;0.000;2023-03-01T08:56:47;14.00;45.40
77969;DHT22;67161;0.000;0.000;2023-03-01T08:59:15;14.00;45.40
77969;DHT22;67161;0.000;0.000;2023-03-01T09:01:41;14.00;45.30
77969;DHT22;67161;0.000;0.000;2023-03-01T09:04:09;14.10;45.40
77969;DHT22;67161;0.000;0.000;2023-03-01T09:06:35;14.20;45.40
77969;DHT22;67161;0.000;0.000;2023-03-01T09:09:03;14.20;45.30
77969;DHT22;67161;0.000;0.000;2023-03-01T09:11:29;14.30;45.40
77969;DHT22;67161;0.000;0.000;2023-03-01T09:13:55;14.30;45.30
77969;DHT22;67161;0.000;0.000;2023-03-01T09:16:21;14.40;45.40
77969;DHT22;67161;0.000;0.000;2023-03-01T09:18:54;14.40;45.30
77969;DHT22;67161;0.000;0.000;2023-03-01T09:21:21;14.50;46.30
77969;DHT22;67161;0.000;0.000;2023-03-01T09:23:48;14.50;46.30
77969;DHT22;67161;0.000;0.000;2023-03-01T09:26:22;14.60;45.10
77969;DHT22;67161;0.000;0.000;2023-03-01T09:28:49;14.60;45.00
77969;DHT22;67161;0.000;0.000;2023-03-01T09:31:16;14.70;45.00
77969;DHT22;67161;0.000;0.000;2023-03-01T09:33:45;14.70;45.00
77969;DHT22;67161;0.000;0.000;2023-03-01T09:36:14;14.80;44.90
77969;DHT22;67161;0.000;0.000;2023-03-01T09:38:39;14.80;44.80
77969;DHT22;67161;0.000;0.000;2023-03-01T09:46:51;15.00;44.70
77969;DHT22;67161;0.000;0.000;2023-03-01T09:49:29;15.10;45.70
77969;DHT22;67161;0.000;0.000;2023-03-01T09:54:40;15.20;44.60
77969;DHT22;67161;0.000;0.000;2023-03-01T09:59:56;15.30;44.60
77969;DHT22;67161;0.000;0.000;2023-03-01T10:02:46;15.30;44.40
77969;DHT22;67161;0.000;0.000;2023-03-01T10:05:37;15.30;44.30
77969;DHT22;67161;0.000;0.000;2023-03-01T10:10:38;15.40;44.70
77969;DHT22;67161;0.000;0.000;2023-03-01T10:15:44;15.50;44.80
77969;DHT22;67161;0.000;0.000;2023-03-01T10:18:20;15.60;45.10
77969;DHT22;67161;0.000;0.000;2023-03-01T10:21:02;15.70;45.20
77969;DHT22;67161;0.000;0.000;2023-03-01T10:23:31;15.70;45.30
77969;DHT22;67161;0.000;0.000;2023-03-01T10:29:10;15.80;45.20
77969;DHT22;67161;0.000;0.000;2023-03-01T10:34:07;15.90;45.30
77969;DHT22;67161;0.000;0.000;2023-03-01T10:36:33;15.90;45.30
77969;DHT22;67161;0.000;0.000;2023-03-01T10:38:59;16.00;45.40
77969;DHT22;67161;0.000;0.000;2023-03-01T10:41:31;16.00;45.40
77969;DHT22;67161;0.000;0.000;2023-03-01T10:43:58;16.10;45.50
77969;DHT22;67161;0.000;0.000;2023-03-01T10:46:29;16.10;45.40
77969;DHT22;67161;0.000;0.000;2023-03-01T10:51:46;16.20;45.20
77969;DHT22;67161;0.000;0.000;2023-03-01T10:54:31;16.20;45.20
77969;DHT22;67161;0.000;0.000;2023-03-01T10:57:00;16.20;45.10
77969;DHT22;67161;0.000;0.000;2023-03-01T10:59:34;16.30;46.00
77969;DHT22;67161;0.000;0.000;2023-03-01T11:02:22;16.20;44.90
77969;DHT22;67161;0.000;0.000;2023-03-01T11:07:23;16.30;44.80
77969;DHT22;67161;0.000;0.000;2023-03-01T11:09:49;16.30;44.80
77969;DHT22;67161;0.000;0.000;2023-03-01T11:12:16;16.30;44.80
77969;DHT22;67161;0.000;0.000;2023-03-01T11:14:53;16.40;44.80
77969;DHT22;67161;0.000;0.000;2023-03-01T11:17:30;16.40;44.80
77969;DHT22;67161;0.000;0.000;2023-03-01T11:22:49;16.40;44.60
77969;DHT22;67161;0.000;0.000;2023-03-01T11:25:15;16.40;44.70
77969;DHT22;67161;0.000;0.000;2023-03-01T11:27:44;16.40;44.70
77969;DHT22;67161;0.000;0.000;2023-03-01T11:35:49;16.50;44.80
77969;DHT22;67161;0.000;0.000;2023-03-01T11:38:26;16.50;44.70
77969;DHT22;67161;0.000;0.000;2023-03-01T11:40:54;16.60;44.70
77969;DHT22;67161;0.000;0.000;2023-03-01T11:44:14;16.50;44.40
77969;DHT22;67161;0.000;0.000;2023-03-01T11:46:32;16.60;44.30
77969;DHT22;67161;0.000;0.000;2023-03-01T12:00:37;16.60;43.90
77969;DHT22;67161;0.000;0.000;2023-03-01T12:06:10;16.60;43.90
77969;DHT22;67161;0.000;0.000;2023-03-01T12:08:59;16.60;44.00
77969;DHT22;67161;0.000;0.000;2023-03-01T12:25:38;16.80;45.30
77969;DHT22;67161;0.000;0.000;2023-03-01T12:31:08;16.80;45.50
77969;DHT22;67161;0.000;0.000;2023-03-01T12:34:14;16.80;45.40
77969;DHT22;67161;0.000;0.000;2023-03-01T12:36:59;16.80;45.50
77969;DHT22;67161;0.000;0.000;2023-03-01T12:40:01;16.80;45.60
77969;DHT22;67161;0.000;0.000;2023-03-01T12:48:00;16.90;45.80
77969;DHT22;67161;0.000;0.000;2023-03-01T12:50:41;16.90;45.80
77969;DHT22;67161;0.000;0.000;2023-03-01T12:53:22;16.90;45.90
77969;DHT22;67161;0.000;0.000;2023-03-01T12:55:49;16.90;45.80
77969;DHT22;67161;0.000;0.000;2023-03-01T13:07:02;17.00;46.00
77969;DHT22;67161;0.000;0.000;2023-03-01T13:17:54;17.10;47.10
77969;DHT22;67161;0.000;0.000;2023-03-01T13:20:33;17.10;46.10
77969;DHT22;67161;0.000;0.000;2023-03-01T13:26:08;17.10;46.30
77969;DHT22;67161;0.000;0.000;2023-03-01T13:33:56;17.10;46.00
77969;DHT22;67161;0.000;0.000;2023-03-01T13:46:50;17.10;46.10
77969;DHT22;67161;0.000;0.000;2023-03-01T13:49:20;17.10;45.90
77969;DHT22;67161;0.000;0.000;2023-03-01T13:51:47;17.10;45.60
77969;DHT22;67161;0.000;0.000;2023-03-01T13:54:15;17.00;45.50
77969;DHT22;67161;0.000;0.000;2023-03-01T13:56:43;17.00;45.40
77969;DHT22;67161;0.000;0.000;2023-03-01T13:59:18;17.00;45.20
77969;DHT22;67161;0.000;0.000;2023-03-01T14:01:44;17.00;45.20
77969;DHT22;67161;0.000;0.000;2023-03-01T14:06:46;17.00;45.20
77969;DHT22;67161;0.000;0.000;2023-03-01T14:15:06;17.00;44.60
77969;DHT22;67161;0.000;0.000;2023-03-01T14:22:47;17.00;43.80
77969;DHT22;67161;0.000;0.000;2023-03-01T14:25:28;17.00;44.30
77969;DHT22;67161;0.000;0.000;2023-03-01T14:28:11;17.00;43.90
77969;DHT22;67161;0.000;0.000;2023-03-01T14:30:42;17.00;44.00
77969;DHT22;67161;0.000;0.000;2023-03-01T14:33:37;17.00;43.80
77969;DHT22;67161;0.000;0.000;2023-03-01T14:36:10;17.00;43.30
77969;DHT22;67161;0.000;0.000;2023-03-01T14:38:44;17.00;43.50
77969;DHT22;67161;0.000;0.000;2023-03-01T14:41:14;17.00;43.40
77969;DHT22;67161;0.000;0.000;2023-03-01T14:46:28;17.00;43.30
77969;DHT22;67161;0.000;0.000;2023-03-01T14:49:02;16.90;43.00
77969;DHT22;67161;0.000;0.000;2023-03-01T14:51:28;16.90;43.10
77969;DHT22;67161;0.000;0.000;2023-03-01T14:53:55;16.90;43.40
77969;DHT22;67161;0.000;0.000;2023-03-01T14:56:21;16.90;43.50
77969;DHT22;67161;0.000;0.000;2023-03-01T14:58:50;17.00;43.60
77969;DHT22;67161;0.000;0.000;2023-03-01T15:01:17;17.00;43.60
77969;DHT22;67161;0.000;0.000;2023-03-01T15:03:46;16.90;43.60
77969;DHT22;67161;0.000;0.000;2023-03-01T15:06:16;16.90;43.70
77969;DHT22;67161;0.000;0.000;2023-03-01T15:08:49;17.00;43.90
77969;DHT22;67161;0.000;0.000;2023-03-01T15:13:47;16.90;44.20
77969;DHT22;67161;0.000;0.000;2023-03-01T15:16:16;17.00;44.40
77969;DHT22;67161;0.000;0.000;2023-03-01T15:18:48;16.90;44.40
77969;DHT22;67161;0.000;0.000;2023-03-01T15:21:26;16.90;44.60
77969;DHT22;67161;0.000;0.000;2023-03-01T15:26:45;16.80;45.50
77969;DHT22;67161;0.000;0.000;2023-03-01T15:29:19;16.80;46.60
77969;DHT22;67161;0.000;0.000;2023-03-01T15:32:06;16.80;45.70
77969;DHT22;67161;0.000;0.000;2023-03-01T15:34:48;16.80;46.10
77969;DHT22;67161;0.000;0.000;2023-03-01T15:40:22;16.70;45.30
77969;DHT22;67161;0.000;0.000;2023-03-01T15:42:59;16.60;45.70
77969;DHT22;67161;0.000;0.000;2023-03-01T15:45:28;16.60;44.80
77969;DHT22;67161;0.000;0.000;2023-03-01T15:47:56;16.60;44.70
77969;DHT22;67161;0.000;0.000;2023-03-01T15:50:29;16.60;44.60
77969;DHT22;67161;0.000;0.000;2023-03-01T15:52:58;16.50;44.40
77969;DHT22;67161;0.000;0.000;2023-03-01T15:55:27;16.60;44.50
77969;DHT22;67161;0.000;0.000;2023-03-01T15:58:11;16.50;44.40
77969;DHT22;67161;0.000;0.000;2023-03-01T16:00:38;16.50;44.30
77969;DHT22;67161;0.000;0.000;2023-03-01T16:03:05;16.40;44.20
77969;DHT22;67161;0.000;0.000;2023-03-01T16:05:33;16.40;44.30
77969;DHT22;67161;0.000;0.000;2023-03-01T16:08:00;16.40;44.20
77969;DHT22;67161;0.000;0.000;2023-03-01T16:10:26;16.40;44.20
77969;DHT22;67161;0.000;0.000;2023-03-01T16:12:51;16.40;44.20
77969;DHT22;67161;0.000;0.000;2023-03-01T16:15:24;16.30;44.20
77969;DHT22;67161;0.000;0.000;2023-03-01T16:17:50;16.30;44.10
77969;DHT22;67161;0.000;0.000;2023-03-01T16:20:17;16.30;44.20
77969;DHT22;67161;0.000;0.000;2023-03-01T16:22:43;16.30;44.20
77969;DHT22;67161;0.000;0.000;2023-03-01T16:25:11;16.20;44.20
77969;DHT22;67161;0.000;0.000;2023-03-01T16:27:38;16.20;44.20
77969;DHT22;67161;0.000;0.000;2023-03-01T16:30:05;16.20;44.20
77969;DHT22;67161;0.000;0.000;2023-03-01T16:32:31;16.20;44.20
77969;DHT22;67161;0.000;0.000;2023-03-01T16:34:57;16.20;44.30
77969;DHT22;67161;0.000;0.000;2023-03-01T16:37:22;16.20;44.30
77969;DHT22;67161;0.000;0.000;2023-03-01T16:39:48;16.10;44.30
77969;DHT22;67161;0.000;0.000;2023-03-01T16:42:17;16.10;44.20
77969;DHT22;67161;0.000;0.000;2023-03-01T16:44:43;16.10;44.30
77969;DHT22;67161;0.000;0.000;2023-03-01T16:47:08;16.00;44.30
77969;DHT22;67161;0.000;0.000;2023-03-01T16:49:34;16.00;44.30
77969;DHT22;67161;0.000;0.000;2023-03-01T16:52:00;16.00;44.30
77969;DHT22;67161;0.000;0.000;2023-03-01T16:54:25;16.00;44.40
77969;DHT22;67161;0.000;0.000;2023-03-01T16:56:51;15.90;44.40
77969;DHT22;67161;0.000;0.000;2023-03-01T16:59:16;15.90;44.40
77969;DHT22;67161;0.000;0.000;2023-03-01T17:01:44;15.90;44.50
77969;DHT22;67161;0.000;0.000;2023-03-01T17:04:11;15.90;44.50
77969;DHT22;67161;0.000;0.000;2023-03-01T17:06:37;15.90;44.60
77969;DHT22;67161;0.000;0.000;2023-03-01T17:09:03;15.90;44.60
77969;DHT22;67161;0.000;0.000;2023-03-01T17:11:29;15.80;44.60
77969;DHT22;67161;0.000;0.000;2023-03-01T17:13:54;15.80;44.70
77969;DHT22;67161;0.000;0.000;2023-03-01T17:16:21;15.80;45.70
77969;DHT22;67161;0.000;0.000;2023-03-01T17:18:47;15.80;44.80
77969;DHT22;67161;0.000;0.000;2023-03-01T17:21:13;15.70;44.80
77969;DHT22;67161;0.000;0.000;2023-03-01T17:23:41;15.70;44.80
77969;DHT22;67161;0.000;0.000;2023-03-01T17:26:08;15.70;44.90
77969;DHT22;67161;0.000;0.000;2023-03-01T17:28:35;15.60;44.90
77969;DHT22;67161;0.000;0.000;2023-03-01T17:31:03;15.60;45.00
77969;DHT22;67161;0.000;0.000;2023-03-01T17:33:29;15.60;45.00
77969;DHT22;67161;0.000;0.000;2023-03-01T17:35:58;15.60;45.00
77969;DHT22;67161;0.000;0.000;2023-03-01T17:38:24;15.60;45.10
77969;DHT22;67161;0.000;0.000;2023-03-01T17:40:50;15.60;45.10
77969;DHT22;67161;0.000;0.000;2023-03-01T17:43:17;15.50;45.10
77969;DHT22;67161;0.000;0.000;2023-03-01T17:45:44;15.50;45.20
77969;DHT22;67161;0.000;0.000;2023-03-01T17:48:13;15.50;45.20
77969;DHT22;67161;0.000;0.000;2023-03-01T17:50:39;15.50;45.30
77969;DHT22;67161;0.000;0.000;2023-03-01T17:53:06;15.40;45.20
77969;DHT22;67161;0.000;0.000;2023-03-01T17:55:35;15.40;45.30
77969;DHT22;67161;0.000;0.000;2023-03-01T17:58:01;15.40;45.30
77969;DHT22;67161;0.000;0.000;2023-03-01T18:00:28;15.40;45.40
77969;DHT22;67161;0.000;0.000;2023-03-01T18:02:54;15.40;45.40
77969;DHT22;67161;0.000;0.000;2023-03-01T18:05:19;15.30;45.40
77969;DHT22;67161;0.000;0.000;2023-03-01T18:07:45;15.30;45.50
77969;DHT22;67161;0.000;0.000;2023-03-01T18:10:11;15.30;45.50
77969;DHT22;67161;0.000;0.000;2023-03-01T18:12:37;15.30;45.50
77969;DHT22;67161;0.000;0.000;2023-03-01T18:15:05;15.30;45.60
77969;DHT22;67161;0.000;0.000;2023-03-01T18:17:31;15.30;45.60
77969;DHT22;67161;0.000;0.000;2023-03-01T18:19:57;15.30;45.70
77969;DHT22;67161;0.000;0.000;2023-03-01T18:22:23;15.20;45.60
77969;DHT22;67161;0.000;0.000;2023-03-01T18:24:49;15.20;45.70
77969;DHT22;67161;0.000;0.000;2023-03-01T18:27:15;15.20;45.70